sensor_id;sensor_type;location;lat;lon;timestamp;temperature;humidity
9939;DHT22;5008;50.656;7.188;2022-10-03T00:00:20;11.80;99.90
9939;DHT22;5008;50.656;7.188;2022-10-03T00:06:05;11.70;99.90
9939;DHT22;5008;50.656;7.188;2022-10-03T00:11:43;11.60;99.90
9939;DHT22;5008;50.656;7.188;2022-10-03T00:14:17;11.60;99.90
9939;DHT22;5008;50.656;7.188;2022-10-03T00:16:54;11.60;99.90
9939;DHT22;5008;50.656;7.188;2022-10-03T00:19:35;11.60;99.90
9939;DHT22;5008;50.656;7.188;2022-10-03T00:22:15;11.60;99.90
9939;DHT22;5008;50.656;7.188;2022-10-03T00:24:53;11.60;99.90
9939;DHT22;5008;50.656;7.188;2022-10-03T00:27:32;11.70;99.90
9939;DHT22;5008;50.656;7.188;2022-10-03T00:30:10;11.60;99.90
9939;DHT22;5008;50.656;7.188;2022-10-03T00:32:57;11.50;99.90
9939;DHT22;5008;50.656;7.188;2022-10-03T00:35:53;11.50;99.90
9939;DHT22;5008;50.656;7.188;2022-10-03T00:38:53;11.50;99.90
9939;DHT22;5008;50.656;7.188;2022-10-03T00:41:50;11.50;99.90
9939;DHT22;5008;50.656;7.188;2022-10-03T00:45:01;11.40;99.90
9939;DHT22;5008;50.656;7.188;2022-10-03T00:50:47;11.30;99.90
9939;DHT22;5008;50.656;7.188;2022-10-03T00:53:29;11.40;99.90
9939;DHT22;5008;50.656;7.188;2022-10-03T00:56:10;11.40;99.90
9939;DHT22;5008;50.656;7.188;2022-10-03T00:58:56;11.40;99.90
9939;DHT22;5008;50.656;7.188;2022-10-03T01:01:33;11.30;99.90
9939;DHT22;5008;50.656;7.188;2022-10-03T01:06:58;11.30;99.90
9939;DHT22;5008;50.656;7.188;2022-10-03T01:09:41;11.20;99.90
9939;DHT22;5008;50.656;7.188;2022-10-03T01:12:25;11.20;99.90
9939;DHT22;5008;50.656;7.188;2022-10-03T01:15:06;11.20;99.90
9939;DHT22;5008;50.656;7.188;2022-10-03T01:17:43;11.10;99.90
9939;DHT22;5008;50.656;7.188;2022-10-03T01:20:34;11.20;99.90
9939;DHT22;5008;50.656;7.188;2022-10-03T01:29:28;11.10;99.90
9939;DHT22;5008;50.656;7.188;2022-10-03T01:32:27;11.10;99.90
9939;DHT22;5008;50.656;7.188;2022-10-03T01:35:04;11.00;99.90
9939;DHT22;5008;50.656;7.188;2022-10-03T01:37:46;10.90;99.90
9939;DHT22;5008;50.656;7.188;2022-10-03T01:40:20;11.00;99.90
9939;DHT22;5008;50.656;7.188;2022-10-03T01:42:59;10.90;99.90
9939;DHT22;5008;50.656;7.188;2022-10-03T01:45:41;10.90;99.90
9939;DHT22;5008;50.656;7.188;2022-10-03T01:48:18;10.90;99.90
9939;DHT22;5008;50.656;7.188;2022-10-03T01:50:53;10.80;99.90
9939;DHT22;5008;50.656;7.188;2022-10-03T01:53:31;10.80;99.90
9939;DHT22;5008;50.656;7.188;2022-10-03T01:56:05;10.70;99.90
9939;DHT22;5008;50.656;7.188;2022-10-03T01:58:43;10.70;99.90
9939;DHT22;5008;50.656;7.188;2022-10-03T02:01:18;10.60;99.90
9939;DHT22;5008;50.656;7.188;2022-10-03T02:03:53;10.60;99.90
9939;DHT22;5008;50.656;7.188;2022-10-03T02:06:31;10.60;99.90
9939;DHT22;5008;50.656;7.188;2022-10-03T02:09:05;10.60;99.90
9939;DHT22;5008;50.656;7.188;2022-10-03T02:11:37;10.50;99.90
9939;DHT22;5008;50.656;7.188;2022-10-03T02:14:19;10.40;99.90
9939;DHT22;5008;50.656;7.188;2022-10-03T02:16:56;10.40;99.90
9939;DHT22;5008;50.656;7.188;2022-10-03T02:19:28;10.50;99.90
9939;DHT22;5008;50.656;7.188;2022-10-03T02:22:13;10.40;99.90
9939;DHT22;5008;50.656;7.188;2022-10-03T02:24:49;10.40;99.90
9939;DHT22;5008;50.656;7.188;2022-10-03T02:27:44;10.40;99.90
9939;DHT22;5008;50.656;7.188;2022-10-03T02:30:20;10.30;99.90
9939;DHT22;5008;50.656;7.188;2022-10-03T02:33:25;10.30;99.90
9939;DHT22;5008;50.656;7.188;2022-10-03T02:36:39;10.40;99.90
9939;DHT22;5008;50.656;7.188;2022-10-03T02:39:22;10.50;99.90
9939;DHT22;5008;50.656;7.188;2022-10-03T03:00:53;10.70;99.90
9939;DHT22;5008;50.656;7.188;2022-10-03T03:03:59;10.70;99.90
9939;DHT22;5008;50.656;7.188;2022-10-03T03:06:56;10.70;99.90
9939;DHT22;5008;50.656;7.188;2022-10-03T03:13:17;10.70;99.90
9939;DHT22;5008;50.656;7.188;2022-10-03T03:16:21;10.70;99.90
9939;DHT22;5008;50.656;7.188;2022-10-03T03:19:09;10.70;99.90
9939;DHT22;5008;50.656;7.188;2022-10-03T03:21:42;10.70;99.90
9939;DHT22;5008;50.656;7.188;2022-10-03T03:24:21;10.80;99.90
9939;DHT22;5008;50.656;7.188;2022-10-03T03:27:15;10.70;99.90
9939;DHT22;5008;50.656;7.188;2022-10-03T03:29:49;10.80;99.90
9939;DHT22;5008;50.656;7.188;2022-10-03T03:32:29;10.90;99.90
9939;DHT22;5008;50.656;7.188;2022-10-03T03:35:09;10.90;99.90
9939;DHT22;5008;50.656;7.188;2022-10-03T03:37:44;10.90;99.90
9939;DHT22;5008;50.656;7.188;2022-10-03T03:40:29;10.90;99.90
9939;DHT22;5008;50.656;7.188;2022-10-03T03:43:11;10.80;99.90
9939;DHT22;5008;50.656;7.188;2022-10-03T03:45:48;10.80;99.90
9939;DHT22;5008;50.656;7.188;2022-10-03T03:48:34;10.90;99.90
9939;DHT22;5008;50.656;7.188;2022-10-03T03:51:21;10.90;99.90
9939;DHT22;5008;50.656;7.188;2022-10-03T03:54:23;11.00;99.90
9939;DHT22;5008;50.656;7.188;2022-10-03T03:57:07;11.00;99.90
9939;DHT22;5008;50.656;7.188;2022-10-03T03:59:48;11.00;99.90
9939;DHT22;5008;50.656;7.188;2022-10-03T04:02:30;11.00;99.90
9939;DHT22;5008;50.656;7.188;2022-10-03T04:05:11;11.00;99.90
9939;DHT22;5008;50.656;7.188;2022-10-03T04:07:55;11.00;99.90
9939;DHT22;5008;50.656;7.188;2022-10-03T04:10:39;10.90;99.90
9939;DHT22;5008;50.656;7.188;2022-10-03T04:16:14;11.00;99.90
9939;DHT22;5008;50.656;7.188;2022-10-03T04:19:30;11.00;99.90
9939;DHT22;5008;50.656;7.188;2022-10-03T04:22:13;11.00;99.90
9939;DHT22;5008;50.656;7.188;2022-10-03T04:24:55;11.00;99.90
9939;DHT22;5008;50.656;7.188;2022-10-03T04:27:55;11.00;99.90
9939;DHT22;5008;50.656;7.188;2022-10-03T04:30:51;10.90;99.90
9939;DHT22;5008;50.656;7.188;2022-10-03T04:37:02;10.90;99.90
9939;DHT22;5008;50.656;7.188;2022-10-03T04:39:43;11.00;99.90
9939;DHT22;5008;50.656;7.188;2022-10-03T04:42:20;10.90;99.90
9939;DHT22;5008;50.656;7.188;2022-10-03T04:45:03;11.00;99.90
9939;DHT22;5008;50.656;7.188;2022-10-03T04:47:40;11.00;99.90
9939;DHT22;5008;50.656;7.188;2022-10-03T04:50:20;10.90;99.90
9939;DHT22;5008;50.656;7.188;2022-10-03T04:53:18;10.80;99.90
9939;DHT22;5008;50.656;7.188;2022-10-03T04:55:49;10.90;99.90
9939;DHT22;5008;50.656;7.188;2022-10-03T04:58:29;10.80;99.90
9939;DHT22;5008;50.656;7.188;2022-10-03T05:01:05;10.80;99.90
9939;DHT22;5008;50.656;7.188;2022-10-03T05:03:42;10.80;99.90
9939;DHT22;5008;50.656;7.188;2022-10-03T05:06:25;10.90;99.90
9939;DHT22;5008;50.656;7.188;2022-10-03T05:09:12;10.90;99.90
9939;DHT22;5008;50.656;7.188;2022-10-03T05:11:52;10.90;99.90
9939;DHT22;5008;50.656;7.188;2022-10-03T05:14:26;11.00;99.90
9939;DHT22;5008;50.656;7.188;2022-10-03T05:17:15;10.90;99.90
9939;DHT22;5008;50.656;7.188;2022-10-03T05:19:52;10.90;99.90
9939;DHT22;5008;50.656;7.188;2022-10-03T05:22:41;10.90;99.90
9939;DHT22;5008;50.656;7.188;2022-10-03T05:25:18;10.90;99.90
9939;DHT22;5008;50.656;7.188;2022-10-03T05:27:50;10.90;99.90
9939;DHT22;5008;50.656;7.188;2022-10-03T05:30:32;10.80;99.90
9939;DHT22;5008;50.656;7.188;2022-10-03T05:33:05;10.80;99.90
9939;DHT22;5008;50.656;7.188;2022-10-03T05:35:44;10.90;99.90
9939;DHT22;5008;50.656;7.188;2022-10-03T05:38:39;10.90;99.90
9939;DHT22;5008;50.656;7.188;2022-10-03T05:41:21;10.90;99.90
9939;DHT22;5008;50.656;7.188;2022-10-03T05:44:00;10.80;99.90
9939;DHT22;5008;50.656;7.188;2022-10-03T05:46:40;10.90;99.90
9939;DHT22;5008;50.656;7.188;2022-10-03T05:49:23;10.90;99.90
9939;DHT22;5008;50.656;7.188;2022-10-03T05:52:17;10.90;99.90
9939;DHT22;5008;50.656;7.188;2022-10-03T05:54:59;11.00;99.90
9939;DHT22;5008;50.656;7.188;2022-10-03T05:58:05;11.20;99.90
9939;DHT22;5008;50.656;7.188;2022-10-03T06:00:49;11.40;99.90
9939;DHT22;5008;50.656;7.188;2022-10-03T06:03:52;11.60;99.90
9939;DHT22;5008;50.656;7.188;2022-10-03T06:06:32;11.80;99.90
9939;DHT22;5008;50.656;7.188;2022-10-03T06:09:33;12.00;99.90
9939;DHT22;5008;50.656;7.188;2022-10-03T06:12:19;12.00;99.90
9939;DHT22;5008;50.656;7.188;2022-10-03T06:15:10;12.00;99.90
9939;DHT22;5008;50.656;7.188;2022-10-03T06:17:59;12.00;99.90
9939;DHT22;5008;50.656;7.188;2022-10-03T06:21:03;12.10;99.90
9939;DHT22;5008;50.656;7.188;2022-10-03T06:23:47;12.00;99.90
9939;DHT22;5008;50.656;7.188;2022-10-03T06:26:36;12.00;99.90
9939;DHT22;5008;50.656;7.188;2022-10-03T06:29:41;11.80;99.90
9939;DHT22;5008;50.656;7.188;2022-10-03T06:42:13;12.20;99.90
9939;DHT22;5008;50.656;7.188;2022-10-03T06:45:08;12.20;99.90
9939;DHT22;5008;50.656;7.188;2022-10-03T06:47:55;12.20;99.90
9939;DHT22;5008;50.656;7.188;2022-10-03T06:50:39;12.20;99.90
9939;DHT22;5008;50.656;7.188;2022-10-03T06:53:29;12.40;99.90
9939;DHT22;5008;50.656;7.188;2022-10-03T06:59:50;13.10;99.90
9939;DHT22;5008;50.656;7.188;2022-10-03T07:12:12;14.20;99.90
9939;DHT22;5008;50.656;7.188;2022-10-03T07:15:07;13.70;99.90
9939;DHT22;5008;50.656;7.188;2022-10-03T07:17:54;13.30;99.90
9939;DHT22;5008;50.656;7.188;2022-10-03T07:20:57;13.10;99.90
9939;DHT22;5008;50.656;7.188;2022-10-03T07:24:05;13.00;99.90
9939;DHT22;5008;50.656;7.188;2022-10-03T07:27:04;12.90;99.90
9939;DHT22;5008;50.656;7.188;2022-10-03T07:29:49;12.90;99.90
9939;DHT22;5008;50.656;7.188;2022-10-03T07:32:55;12.80;99.90
9939;DHT22;5008;50.656;7.188;2022-10-03T07:35:41;12.80;99.90
9939;DHT22;5008;50.656;7.188;2022-10-03T07:38:57;12.80;99.90
9939;DHT22;5008;50.656;7.188;2022-10-03T07:41:51;12.80;99.90
9939;DHT22;5008;50.656;7.188;2022-10-03T07:44:46;12.80;99.90
9939;DHT22;5008;50.656;7.188;2022-10-03T07:50:44;12.80;99.90
9939;DHT22;5008;50.656;7.188;2022-10-03T07:53:32;12.80;99.90
9939;DHT22;5008;50.656;7.188;2022-10-03T07:56:12;12.80;99.90
9939;DHT22;5008;50.656;7.188;2022-10-03T07:59:11;12.90;99.90
9939;DHT22;5008;50.656;7.188;2022-10-03T08:01:57;13.10;99.90
9939;DHT22;5008;50.656;7.188;2022-10-03T08:05:01;13.10;99.90
9939;DHT22;5008;50.656;7.188;2022-10-03T08:07:48;13.00;99.90
9939;DHT22;5008;50.656;7.188;2022-10-03T08:10:33;13.00;99.90
9939;DHT22;5008;50.656;7.188;2022-10-03T08:13:14;13.00;99.90
9939;DHT22;5008;50.656;7.188;2022-10-03T08:15:57;13.00;99.90
9939;DHT22;5008;50.656;7.188;2022-10-03T08:18:55;13.10;99.90
9939;DHT22;5008;50.656;7.188;2022-10-03T08:21:29;13.10;99.90
9939;DHT22;5008;50.656;7.188;2022-10-03T08:24:19;13.20;99.90
9939;DHT22;5008;50.656;7.188;2022-10-03T08:27:20;13.20;99.90
9939;DHT22;5008;50.656;7.188;2022-10-03T09:43:07;14.10;99.90
9939;DHT22;5008;50.656;7.188;2022-10-03T09:48:58;14.40;99.90
9939;DHT22;5008;50.656;7.188;2022-10-03T09:51:47;14.40;99.90
9939;DHT22;5008;50.656;7.188;2022-10-03T09:54:51;14.40;99.90
9939;DHT22;5008;50.656;7.188;2022-10-03T10:00:24;14.60;99.90
9939;DHT22;5008;50.656;7.188;2022-10-03T10:03:25;14.80;99.90
9939;DHT22;5008;50.656;7.188;2022-10-03T10:06:33;14.90;99.90
9939;DHT22;5008;50.656;7.188;2022-10-03T10:09:37;14.90;99.90
9939;DHT22;5008;50.656;7.188;2022-10-03T10:15:32;15.00;99.90
9939;DHT22;5008;50.656;7.188;2022-10-03T10:18:32;15.00;99.90
9939;DHT22;5008;50.656;7.188;2022-10-03T10:21:34;15.00;99.90
9939;DHT22;5008;50.656;7.188;2022-10-03T10:30:38;15.00;99.90
9939;DHT22;5008;50.656;7.188;2022-10-03T10:33:40;15.00;99.90
9939;DHT22;5008;50.656;7.188;2022-10-03T10:43:05;15.00;99.90
9939;DHT22;5008;50.656;7.188;2022-10-03T10:46:11;14.90;99.90
9939;DHT22;5008;50.656;7.188;2022-10-03T10:49:10;15.00;99.90
9939;DHT22;5008;50.656;7.188;2022-10-03T10:52:07;15.00;99.90
9939;DHT22;5008;50.656;7.188;2022-10-03T11:01:09;15.10;99.90
9939;DHT22;5008;50.656;7.188;2022-10-03T11:04:26;15.20;99.90
9939;DHT22;5008;50.656;7.188;2022-10-03T11:07:23;15.30;99.90
9939;DHT22;5008;50.656;7.188;2022-10-03T11:41:22;15.80;99.90
9939;DHT22;5008;50.656;7.188;2022-10-03T11:44:19;15.80;99.90
9939;DHT22;5008;50.656;7.188;2022-10-03T11:52:49;16.00;99.90
9939;DHT22;5008;50.656;7.188;2022-10-03T11:55:29;15.90;99.90
9939;DHT22;5008;50.656;7.188;2022-10-03T12:00:56;15.90;99.90
9939;DHT22;5008;50.656;7.188;2022-10-03T12:03:26;15.90;99.90
9939;DHT22;5008;50.656;7.188;2022-10-03T12:05:56;16.00;99.90
9939;DHT22;5008;50.656;7.188;2022-10-03T12:08:40;15.90;99.90
9939;DHT22;5008;50.656;7.188;2022-10-03T12:11:26;15.90;99.90
9939;DHT22;5008;50.656;7.188;2022-10-03T12:14:11;15.90;99.90
9939;DHT22;5008;50.656;7.188;2022-10-03T12:16:58;15.90;99.90
9939;DHT22;5008;50.656;7.188;2022-10-03T12:19:30;16.00;99.90
9939;DHT22;5008;50.656;7.188;2022-10-03T12:22:07;16.00;99.90
9939;DHT22;5008;50.656;7.188;2022-10-03T12:24:40;16.00;99.90
9939;DHT22;5008;50.656;7.188;2022-10-03T12:27:18;16.00;99.90
9939;DHT22;5008;50.656;7.188;2022-10-03T12:29:54;16.00;99.90
9939;DHT22;5008;50.656;7.188;2022-10-03T12:32:30;16.10;99.90
9939;DHT22;5008;50.656;7.188;2022-10-03T12:35:09;16.00;99.90
9939;DHT22;5008;50.656;7.188;2022-10-03T12:37:45;15.90;99.90
9939;DHT22;5008;50.656;7.188;2022-10-03T12:40:17;16.00;99.90
9939;DHT22;5008;50.656;7.188;2022-10-03T12:43:02;16.00;99.90
9939;DHT22;5008;50.656;7.188;2022-10-03T12:45:36;16.00;99.90
9939;DHT22;5008;50.656;7.188;2022-10-03T12:48:20;16.00;99.90
9939;DHT22;5008;50.656;7.188;2022-10-03T12:50:53;16.00;99.90
9939;DHT22;5008;50.656;7.188;2022-10-03T12:53:30;16.10;99.90
9939;DHT22;5008;50.656;7.188;2022-10-03T12:56:05;16.20;99.90
9939;DHT22;5008;50.656;7.188;2022-10-03T12:58:43;16.20;99.90
9939;DHT22;5008;50.656;7.188;2022-10-03T13:01:23;16.20;99.90
9939;DHT22;5008;50.656;7.188;2022-10-03T13:03:53;16.40;99.90
9939;DHT22;5008;50.656;7.188;2022-10-03T13:06:43;16.40;99.90
9939;DHT22;5008;50.656;7.188;2022-10-03T13:09:23;16.30;99.90
9939;DHT22;5008;50.656;7.188;2022-10-03T13:11:57;16.20;99.90
9939;DHT22;5008;50.656;7.188;2022-10-03T13:14:33;16.20;99.90
9939;DHT22;5008;50.656;7.188;2022-10-03T13:17:12;16.40;99.90
9939;DHT22;5008;50.656;7.188;2022-10-03T13:19:47;16.50;99.90
9939;DHT22;5008;50.656;7.188;2022-10-03T13:22:27;16.70;99.90
9939;DHT22;5008;50.656;7.188;2022-10-03T13:25:01;16.80;99.90
9939;DHT22;5008;50.656;7.188;2022-10-03T13:27:38;16.80;99.90
9939;DHT22;5008;50.656;7.188;2022-10-03T13:30:15;16.80;99.90
9939;DHT22;5008;50.656;7.188;2022-10-03T13:32:48;16.80;99.90
9939;DHT22;5008;50.656;7.188;2022-10-03T13:35:21;16.80;99.90
9939;DHT22;5008;50.656;7.188;2022-10-03T13:38:16;16.90;99.90
9939;DHT22;5008;50.656;7.188;2022-10-03T13:40:55;17.10;99.90
9939;DHT22;5008;50.656;7.188;2022-10-03T13:43:50;17.30;99.90
9939;DHT22;5008;50.656;7.188;2022-10-03T13:46:25;17.50;99.90
9939;DHT22;5008;50.656;7.188;2022-10-03T13:48:57;17.40;99.90
9939;DHT22;5008;50.656;7.188;2022-10-03T13:51:33;17.30;99.90
9939;DHT22;5008;50.656;7.188;2022-10-03T13:54:05;17.30;99.90
9939;DHT22;5008;50.656;7.188;2022-10-03T13:56:44;17.30;99.90
9939;DHT22;5008;50.656;7.188;2022-10-03T14:02:18;17.40;99.90
9939;DHT22;5008;50.656;7.188;2022-10-03T14:05:02;17.30;99.90
9939;DHT22;5008;50.656;7.188;2022-10-03T14:07:41;17.20;99.90
9939;DHT22;5008;50.656;7.188;2022-10-03T14:10:26;17.20;99.90
9939;DHT22;5008;50.656;7.188;2022-10-03T14:13:12;17.10;99.90
9939;DHT22;5008;50.656;7.188;2022-10-03T14:15:49;17.10;99.90
9939;DHT22;5008;50.656;7.188;2022-10-03T14:18:36;17.00;99.90
9939;DHT22;5008;50.656;7.188;2022-10-03T14:21:25;16.90;99.90
9939;DHT22;5008;50.656;7.188;2022-10-03T14:23:59;16.90;99.90
9939;DHT22;5008;50.656;7.188;2022-10-03T14:26:50;16.80;99.90
9939;DHT22;5008;50.656;7.188;2022-10-03T14:29:22;16.90;99.90
9939;DHT22;5008;50.656;7.188;2022-10-03T14:31:57;17.20;99.90
9939;DHT22;5008;50.656;7.188;2022-10-03T14:34:40;17.80;99.90
9939;DHT22;5008;50.656;7.188;2022-10-03T14:37:20;18.40;99.90
9939;DHT22;5008;50.656;7.188;2022-10-03T14:40:00;19.50;99.90
9939;DHT22;5008;50.656;7.188;2022-10-03T14:45:23;20.20;99.90
9939;DHT22;5008;50.656;7.188;2022-10-03T14:47:54;20.00;99.90
9939;DHT22;5008;50.656;7.188;2022-10-03T14:50:25;20.30;99.90
9939;DHT22;5008;50.656;7.188;2022-10-03T14:52:58;21.90;99.90
9939;DHT22;5008;50.656;7.188;2022-10-03T14:55:30;21.70;99.90
9939;DHT22;5008;50.656;7.188;2022-10-03T14:58:01;21.00;99.90
9939;DHT22;5008;50.656;7.188;2022-10-03T15:00:40;20.50;99.90
9939;DHT22;5008;50.656;7.188;2022-10-03T15:03:26;20.00;99.90
9939;DHT22;5008;50.656;7.188;2022-10-03T15:05:59;19.30;99.90
9939;DHT22;5008;50.656;7.188;2022-10-03T15:08:34;18.80;99.90
9939;DHT22;5008;50.656;7.188;2022-10-03T15:11:04;18.50;99.90
9939;DHT22;5008;50.656;7.188;2022-10-03T15:13:37;18.20;99.90
9939;DHT22;5008;50.656;7.188;2022-10-03T15:16:07;18.10;99.90
9939;DHT22;5008;50.656;7.188;2022-10-03T15:18:36;17.90;99.90
9939;DHT22;5008;50.656;7.188;2022-10-03T15:21:04;17.70;99.90
9939;DHT22;5008;50.656;7.188;2022-10-03T15:23:37;17.50;99.90
9939;DHT22;5008;50.656;7.188;2022-10-03T15:26:08;17.40;99.90
9939;DHT22;5008;50.656;7.188;2022-10-03T15:28:41;17.30;99.90
9939;DHT22;5008;50.656;7.188;2022-10-03T15:31:13;17.20;99.90
9939;DHT22;5008;50.656;7.188;2022-10-03T15:33:42;17.10;99.90
9939;DHT22;5008;50.656;7.188;2022-10-03T15:36:13;17.00;99.90
9939;DHT22;5008;50.656;7.188;2022-10-03T15:38:44;17.00;99.90
9939;DHT22;5008;50.656;7.188;2022-10-03T15:41:15;16.90;99.90
9939;DHT22;5008;50.656;7.188;2022-10-03T15:43:47;16.90;99.90
9939;DHT22;5008;50.656;7.188;2022-10-03T15:46:30;16.80;99.90
9939;DHT22;5008;50.656;7.188;2022-10-03T15:49:15;16.80;99.90
9939;DHT22;5008;50.656;7.188;2022-10-03T15:51:46;16.80;99.90
9939;DHT22;5008;50.656;7.188;2022-10-03T15:54:33;16.70;99.90
9939;DHT22;5008;50.656;7.188;2022-10-03T15:57:20;16.60;99.90
9939;DHT22;5008;50.656;7.188;2022-10-03T15:59:54;16.60;99.90
9939;DHT22;5008;50.656;7.188;2022-10-03T16:02:26;16.40;99.90
9939;DHT22;5008;50.656;7.188;2022-10-03T16:05:07;16.30;99.90
9939;DHT22;5008;50.656;7.188;2022-10-03T16:07:49;16.30;99.90
9939;DHT22;5008;50.656;7.188;2022-10-03T16:10:37;16.20;99.90
9939;DHT22;5008;50.656;7.188;2022-10-03T16:13:19;16.10;99.90
9939;DHT22;5008;50.656;7.188;2022-10-03T16:16:01;16.10;99.90
9939;DHT22;5008;50.656;7.188;2022-10-03T16:21:44;15.90;99.90
9939;DHT22;5008;50.656;7.188;2022-10-03T16:24:39;15.90;99.90
9939;DHT22;5008;50.656;7.188;2022-10-03T16:27:13;15.80;99.90
9939;DHT22;5008;50.656;7.188;2022-10-03T16:29:44;15.70;99.90
9939;DHT22;5008;50.656;7.188;2022-10-03T16:32:17;15.60;99.90
9939;DHT22;5008;50.656;7.188;2022-10-03T16:34:46;15.50;99.90
9939;DHT22;5008;50.656;7.188;2022-10-03T16:37:17;15.50;99.90
9939;DHT22;5008;50.656;7.188;2022-10-03T16:39:51;15.40;99.90
9939;DHT22;5008;50.656;7.188;2022-10-03T16:42:21;15.40;99.90
9939;DHT22;5008;50.656;7.188;2022-10-03T16:44:51;15.40;99.90
9939;DHT22;5008;50.656;7.188;2022-10-03T16:47:28;15.30;99.90
9939;DHT22;5008;50.656;7.188;2022-10-03T16:49:58;15.20;99.90
9939;DHT22;5008;50.656;7.188;2022-10-03T16:52:47;15.20;99.90
9939;DHT22;5008;50.656;7.188;2022-10-03T16:55:19;15.10;99.90
9939;DHT22;5008;50.656;7.188;2022-10-03T16:57:54;15.00;99.90
9939;DHT22;5008;50.656;7.188;2022-10-03T17:00:23;15.00;99.90
9939;DHT22;5008;50.656;7.188;2022-10-03T17:02:54;15.00;99.90
9939;DHT22;5008;50.656;7.188;2022-10-03T17:05:21;14.80;99.90
9939;DHT22;5008;50.656;7.188;2022-10-03T17:07:50;14.80;99.90
9939;DHT22;5008;50.656;7.188;2022-10-03T17:10:30;14.70;99.90
9939;DHT22;5008;50.656;7.188;2022-10-03T17:13:02;14.60;99.90
9939;DHT22;5008;50.656;7.188;2022-10-03T17:15:33;14.60;99.90
9939;DHT22;5008;50.656;7.188;2022-10-03T17:18:14;14.60;99.90
9939;DHT22;5008;50.656;7.188;2022-10-03T17:20:44;14.50;99.90
9939;DHT22;5008;50.656;7.188;2022-10-03T17:23:28;14.40;99.90
9939;DHT22;5008;50.656;7.188;2022-10-03T17:26:04;14.30;99.90
9939;DHT22;5008;50.656;7.188;2022-10-03T17:28:37;14.20;99.90
9939;DHT22;5008;50.656;7.188;2022-10-03T17:31:19;14.20;99.90
9939;DHT22;5008;50.656;7.188;2022-10-03T17:33:50;14.10;99.90
9939;DHT22;5008;50.656;7.188;2022-10-03T17:36:44;14.00;99.90
9939;DHT22;5008;50.656;7.188;2022-10-03T17:39:24;14.00;99.90
9939;DHT22;5008;50.656;7.188;2022-10-03T17:42:01;14.00;99.90
9939;DHT22;5008;50.656;7.188;2022-10-03T17:44:37;13.90;99.90
9939;DHT22;5008;50.656;7.188;2022-10-03T17:47:11;13.80;99.90
9939;DHT22;5008;50.656;7.188;2022-10-03T17:49:51;13.80;99.90
9939;DHT22;5008;50.656;7.188;2022-10-03T17:52:22;13.80;99.90
9939;DHT22;5008;50.656;7.188;2022-10-03T17:54:54;13.80;99.90
9939;DHT22;5008;50.656;7.188;2022-10-03T17:57:23;13.70;99.90
9939;DHT22;5008;50.656;7.188;2022-10-03T17:59:59;13.70;99.90
9939;DHT22;5008;50.656;7.188;2022-10-03T18:02:34;13.60;99.90
9939;DHT22;5008;50.656;7.188;2022-10-03T18:05:10;13.60;99.90
9939;DHT22;5008;50.656;7.188;2022-10-03T18:07:39;13.50;99.90
9939;DHT22;5008;50.656;7.188;2022-10-03T18:10:18;13.50;99.90
9939;DHT22;5008;50.656;7.188;2022-10-03T18:12:47;13.50;99.90
9939;DHT22;5008;50.656;7.188;2022-10-03T18:15:36;13.40;99.90
9939;DHT22;5008;50.656;7.188;2022-10-03T18:18:29;13.40;99.90
9939;DHT22;5008;50.656;7.188;2022-10-03T18:21:06;13.30;99.90
9939;DHT22;5008;50.656;7.188;2022-10-03T18:23:43;13.30;99.90
9939;DHT22;5008;50.656;7.188;2022-10-03T18:26:24;13.30;99.90
9939;DHT22;5008;50.656;7.188;2022-10-03T18:29:00;13.20;99.90
9939;DHT22;5008;50.656;7.188;2022-10-03T18:31:33;13.10;99.90
9939;DHT22;5008;50.656;7.188;2022-10-03T18:34:07;13.00;99.90
9939;DHT22;5008;50.656;7.188;2022-10-03T18:36:41;13.00;99.90
9939;DHT22;5008;50.656;7.188;2022-10-03T18:39:12;13.00;99.90
9939;DHT22;5008;50.656;7.188;2022-10-03T18:41:43;13.00;99.90
9939;DHT22;5008;50.656;7.188;2022-10-03T18:44:13;12.90;99.90
9939;DHT22;5008;50.656;7.188;2022-10-03T18:46:44;12.90;99.90
9939;DHT22;5008;50.656;7.188;2022-10-03T18:49:17;12.90;99.90
9939;DHT22;5008;50.656;7.188;2022-10-03T18:51:52;12.80;99.90
9939;DHT22;5008;50.656;7.188;2022-10-03T18:54:27;12.80;99.90
9939;DHT22;5008;50.656;7.188;2022-10-03T18:57:06;12.70;99.90
9939;DHT22;5008;50.656;7.188;2022-10-03T18:59:41;12.70;99.90
9939;DHT22;5008;50.656;7.188;2022-10-03T19:02:20;12.70;99.90
9939;DHT22;5008;50.656;7.188;2022-10-03T19:04:52;12.70;99.90
9939;DHT22;5008;50.656;7.188;2022-10-03T19:07:23;12.70;99.90
9939;DHT22;5008;50.656;7.188;2022-10-03T19:10:17;12.60;99.90
9939;DHT22;5008;50.656;7.188;2022-10-03T19:12:49;12.60;99.90
9939;DHT22;5008;50.656;7.188;2022-10-03T19:15:20;12.50;99.90
9939;DHT22;5008;50.656;7.188;2022-10-03T19:18:04;12.50;99.90
9939;DHT22;5008;50.656;7.188;2022-10-03T19:20:37;12.60;99.90
9939;DHT22;5008;50.656;7.188;2022-10-03T19:23:08;12.60;99.90
9939;DHT22;5008;50.656;7.188;2022-10-03T19:25:38;12.60;99.90
9939;DHT22;5008;50.656;7.188;2022-10-03T19:28:12;12.60;99.90
9939;DHT22;5008;50.656;7.188;2022-10-03T19:30:41;12.60;99.90
9939;DHT22;5008;50.656;7.188;2022-10-03T19:33:16;12.50;99.90
9939;DHT22;5008;50.656;7.188;2022-10-03T19:35:47;12.50;99.90
9939;DHT22;5008;50.656;7.188;2022-10-03T19:38:17;12.40;99.90
9939;DHT22;5008;50.656;7.188;2022-10-03T19:40:53;12.40;99.90
9939;DHT22;5008;50.656;7.188;2022-10-03T19:43:40;12.30;99.90
9939;DHT22;5008;50.656;7.188;2022-10-03T19:46:24;12.30;99.90
9939;DHT22;5008;50.656;7.188;2022-10-03T19:49:19;12.30;99.90
9939;DHT22;5008;50.656;7.188;2022-10-03T19:51:48;12.20;99.90
9939;DHT22;5008;50.656;7.188;2022-10-03T19:54:29;12.30;99.90
9939;DHT22;5008;50.656;7.188;2022-10-03T19:57:00;12.40;99.90
9939;DHT22;5008;50.656;7.188;2022-10-03T19:59:43;12.40;99.90
9939;DHT22;5008;50.656;7.188;2022-10-03T20:02:11;12.40;99.90
9939;DHT22;5008;50.656;7.188;2022-10-03T20:04:39;12.30;99.90
9939;DHT22;5008;50.656;7.188;2022-10-03T20:07:16;12.30;99.90
9939;DHT22;5008;50.656;7.188;2022-10-03T20:09:54;12.40;99.90
9939;DHT22;5008;50.656;7.188;2022-10-03T20:12:23;12.30;99.90
9939;DHT22;5008;50.656;7.188;2022-10-03T20:14:52;12.30;99.90
9939;DHT22;5008;50.656;7.188;2022-10-03T20:17:21;12.30;99.90
9939;DHT22;5008;50.656;7.188;2022-10-03T20:19:52;12.30;99.90
9939;DHT22;5008;50.656;7.188;2022-10-03T20:22:21;12.20;99.90
9939;DHT22;5008;50.656;7.188;2022-10-03T20:24:52;12.10;99.90
9939;DHT22;5008;50.656;7.188;2022-10-03T20:27:30;12.00;99.90
9939;DHT22;5008;50.656;7.188;2022-10-03T20:30:06;11.90;99.90
9939;DHT22;5008;50.656;7.188;2022-10-03T20:32:36;11.90;99.90
9939;DHT22;5008;50.656;7.188;2022-10-03T20:35:05;12.00;99.90
9939;DHT22;5008;50.656;7.188;2022-10-03T20:37:44;11.90;99.90
9939;DHT22;5008;50.656;7.188;2022-10-03T20:40:21;11.80;99.90
9939;DHT22;5008;50.656;7.188;2022-10-03T20:42:50;11.80;99.90
9939;DHT22;5008;50.656;7.188;2022-10-03T20:45:22;11.80;99.90
9939;DHT22;5008;50.656;7.188;2022-10-03T20:48:03;11.90;99.90
9939;DHT22;5008;50.656;7.188;2022-10-03T20:50:36;11.80;99.90
9939;DHT22;5008;50.656;7.188;2022-10-03T20:53:14;11.80;99.90
9939;DHT22;5008;50.656;7.188;2022-10-03T20:55:47;11.70;99.90
9939;DHT22;5008;50.656;7.188;2022-10-03T20:58:21;11.60;99.90
9939;DHT22;5008;50.656;7.188;2022-10-03T21:00:53;11.60;99.90
9939;DHT22;5008;50.656;7.188;2022-10-03T21:03:29;11.70;99.90
9939;DHT22;5008;50.656;7.188;2022-10-03T21:05:59;11.70;99.90
9939;DHT22;5008;50.656;7.188;2022-10-03T21:08:29;11.70;99.90
9939;DHT22;5008;50.656;7.188;2022-10-03T21:10:59;11.70;99.90
9939;DHT22;5008;50.656;7.188;2022-10-03T21:13:31;11.50;99.90